Terminal Aerodrome Forecast
Issued by NWS

Home | Current Version | Previous Version | Text Only | Print | Product List | Glossary On
Versions: 1 2 3 4 5 6 7 8 9 10 11 12 13 14 15 16 17 18 19 20 21
000
FTUS41 KPHI 010156 AAA
TAFMIV
TAF AMD
KMIV 010156Z 0102/0124 17007KT P6SM SCT050 BKN250
     FM010300 17007KT P6SM SCT050 BKN250
      TEMPO 0104/0108 4SM TSRA BR BKN050CB
     FM011000 23003KT 4SM BR BKN150
     FM011200 24004KT P6SM SCT050
     FM011500 25009G17KT P6SM SCT050=

USA.gov is the U.S. government's official web portal to all federal, state and local government web resources and services.